Time;durP1;ratioP1;P1;durP2;ratioP2;P2;SDS_P1;SDS_P2;PMS_P1;PMS_P2;Temp;Humidity;BMP_temperature;BMP_pressure;BME280_temperature;BME280_humidity;BME280_pressure;Samples;Min_cycle;Max_cycle;Signal;HPM_P1;HPM_P2
2022/04/11 00:00:43;;;;;;;;;;;;;;;7.01;50.92;101537.53;5042165;28;20309;-80
2022/04/11 00:03:09;;;;;;;;;;;;;;;7.07;50.95;101541.03;5058000;28;19920;-79
2022/04/11 00:05:34;;;;;;;;;;;;;;;7.11;51.04;101535.00;5058542;28;19932;-79
2022/04/11 00:07:59;;;;;;;;;;;;;;;6.97;50.62;101534.06;5048904;28;20375;-79
2022/04/11 00:10:24;;;;;;;;;;;;;;;6.99;50.42;101534.94;5052917;28;19921;-75
2022/04/11 00:12:50;;;;;;;;;;;;;;;6.94;51.50;101533.19;5049828;28;19936;-75
2022/04/11 00:15:15;;;;;;;;;;;;;;;6.83;51.45;101527.09;5052148;28;19917;-78
2022/04/11 00:17:40;;;;;;;;;;;;;;;6.78;51.35;101539.97;5035285;28;19925;-79
2022/04/11 00:20:06;;;;;;;;;;;;;;;6.89;51.04;101534.88;5044297;28;19921;-79
2022/04/11 00:22:35;;;;;;;;;;;;;;;6.93;51.57;101536.66;5046405;28;20019;-75
2022/04/11 00:25:00;;;;;;;;;;;;;;;6.72;51.76;101537.38;5052347;28;19921;-75
2022/04/11 00:27:26;;;;;;;;;;;;;;;7.01;51.63;101527.22;5055802;28;19928;-79
2022/04/11 00:29:51;;;;;;;;;;;;;;;7.03;51.68;101523.78;5051455;28;19917;-75
2022/04/11 00:32:16;;;;;;;;;;;;;;;6.85;51.42;101521.09;5042869;28;19936;-80
2022/04/11 00:34:41;;;;;;;;;;;;;;;6.93;51.24;101514.25;5056935;28;20355;-75
2022/04/11 00:37:07;;;;;;;;;;;;;;;6.78;51.44;101521.06;5051975;28;19921;-75
2022/04/11 00:39:32;;;;;;;;;;;;;;;6.79;51.71;101518.47;5051221;28;20286;-77
2022/04/11 00:41:57;;;;;;;;;;;;;;;6.75;52.05;101519.28;5047879;28;19933;-75
2022/04/11 00:44:23;;;;;;;;;;;;;;;6.80;51.78;101515.03;5046287;28;20308;-75
2022/04/11 00:46:48;;;;;;;;;;;;;;;6.92;51.61;101514.25;5051424;28;20016;-79
2022/04/11 00:49:13;;;;;;;;;;;;;;;6.76;51.21;101520.16;5051786;28;19963;-79
2022/04/11 00:51:39;;;;;;;;;;;;;;;6.78;51.99;101508.97;5046133;28;20305;-79
2022/04/11 00:54:04;;;;;;;;;;;;;;;6.89;51.70;101520.25;5041673;28;19963;-77
2022/04/11 00:56:30;;;;;;;;;;;;;;;6.83;52.10;101511.59;5056007;28;19928;-78
2022/04/11 00:58:56;;;;;;;;;;;;;;;6.75;51.94;101508.13;5055736;28;19925;-75
2022/04/11 01:01:21;;;;;;;;;;;;;;;6.66;51.80;101506.34;5048364;28;19929;-75
2022/04/11 01:03:47;;;;;;;;;;;;;;;6.82;51.18;101503.00;5054058;28;19969;-75
2022/04/11 01:06:12;;;;;;;;;;;;;;;6.96;50.73;101500.50;5066829;28;19920;-74
2022/04/11 01:08:37;;;;;;;;;;;;;;;6.88;51.27;101497.00;5061718;28;19921;-75
2022/04/11 01:11:03;;;;;;;;;;;;;;;6.90;51.10;101496.13;5039466;28;19971;-77
2022/04/11 01:13:29;;;;;;;;;;;;;;;6.70;51.31;101499.47;5048875;28;19932;-79
2022/04/11 01:15:57;;;;;;;;;;;;;;;6.66;51.44;101496.03;5042874;28;19951;-79
2022/04/11 01:18:22;;;;;;;;;;;;;;;6.77;51.35;101496.94;5045202;28;20223;-79
2022/04/11 01:20:48;;;;;;;;;;;;;;;7.01;51.16;101489.34;5046153;28;19960;-80
2022/04/11 01:23:13;;;;;;;;;;;;;;;6.78;51.00;101485.75;5048674;28;20434;-80
2022/04/11 01:25:39;;;;;;;;;;;;;;;6.94;51.22;101486.69;5044901;28;20384;-80
2022/04/11 01:28:05;;;;;;;;;;;;;;;7.04;51.25;101480.72;5044430;28;19982;-80
2022/04/11 01:30:30;;;;;;;;;;;;;;;6.82;51.34;101481.47;5053679;28;19916;-80
2022/04/11 01:32:55;;;;;;;;;;;;;;;6.91;50.96;101477.22;5047900;28;19928;-80
2022/04/11 01:35:22;;;;;;;;;;;;;;;6.85;51.13;101478.91;5053761;28;20092;-80
2022/04/11 01:37:48;;;;;;;;;;;;;;;6.80;51.17;101476.31;5047884;28;20397;-78
2022/04/11 01:40:13;;;;;;;;;;;;;;;6.78;51.98;101480.56;5048104;28;20619;-78
2022/04/11 01:42:43;;;;;;;;;;;;;;;7.09;51.01;101473.84;5047361;28;19928;-78
2022/04/11 01:45:10;;;;;;;;;;;;;;;6.97;50.99;101460.88;5051893;28;19916;-78
2022/04/11 01:47:36;;;;;;;;;;;;;;;7.03;50.98;101466.94;5050643;28;20327;-78
2022/04/11 01:50:01;;;;;;;;;;;;;;;6.92;49.99;101471.22;5065643;28;19972;-78
2022/04/11 01:52:26;;;;;;;;;;;;;;;7.02;51.01;101461.75;5049526;28;19920;-79
2022/04/11 01:54:52;;;;;;;;;;;;;;;6.92;51.06;101468.63;5048855;28;19928;-79
2022/04/11 01:57:17;;;;;;;;;;;;;;;6.98;49.78;101458.31;5052933;28;19924;-75
2022/04/11 01:59:42;;;;;;;;;;;;;;;6.67;51.64;101464.16;5052079;28;19921;-75
2022/04/11 02:02:07;;;;;;;;;;;;;;;6.72;51.60;101459.91;5051538;28;19929;-75
2022/04/11 02:04:33;;;;;;;;;;;;;;;6.92;51.27;101457.44;5057270;28;20038;-77
2022/04/11 02:06:58;;;;;;;;;;;;;;;6.88;50.89;101453.97;5068450;28;19920;-75
2022/04/11 02:09:23;;;;;;;;;;;;;;;6.91;50.77;101459.13;5036476;28;19932;-75
2022/04/11 02:11:48;;;;;;;;;;;;;;;7.12;51.40;101451.50;5055620;28;19921;-75
2022/04/11 02:14:14;;;;;;;;;;;;;;;6.96;50.15;101452.25;5051743;28;20363;-80
2022/04/11 02:16:39;;;;;;;;;;;;;;;6.98;50.92;101447.13;5049269;28;19924;-80
2022/04/11 02:19:04;;;;;;;;;;;;;;;6.80;50.27;101449.63;5053233;28;19921;-79
2022/04/11 02:21:30;;;;;;;;;;;;;;;6.85;51.02;101443.63;5052425;28;19947;-79
2022/04/11 02:23:55;;;;;;;;;;;;;;;6.88;51.14;101448.78;5048609;28;20019;-75
2022/04/11 02:26:20;;;;;;;;;;;;;;;6.79;50.90;101445.28;5048031;28;19977;-80
2022/04/11 02:28:45;;;;;;;;;;;;;;;6.90;50.80;101438.50;5050735;28;19924;-78
2022/04/11 02:31:11;;;;;;;;;;;;;;;6.67;50.68;101443.50;5059640;28;20459;-78
2022/04/11 02:33:36;;;;;;;;;;;;;;;6.89;50.64;101449.66;5054546;28;20019;-78
2022/04/11 02:36:01;;;;;;;;;;;;;;;7.01;49.62;101444.56;5051277;28;19927;-78
2022/04/11 02:38:27;;;;;;;;;;;;;;;6.97;50.08;101443.69;5045438;28;20127;-79
2022/04/11 02:40:52;;;;;;;;;;;;;;;6.94;50.27;101446.25;5040451;28;20401;-79
2022/04/11 02:43:17;;;;;;;;;;;;;;;6.84;50.48;101444.47;5058675;28;20546;-79
2022/04/11 02:45:43;;;;;;;;;;;;;;;6.92;49.92;101450.53;5049546;28;19931;-78
2022/04/11 02:48:08;;;;;;;;;;;;;;;6.93;50.30;101449.66;5049630;28;19924;-75
2022/04/11 02:50:33;;;;;;;;;;;;;;;6.81;50.87;101452.19;5051328;28;19924;-79
2022/04/11 02:52:58;;;;;;;;;;;;;;;6.91;50.20;101448.81;5042320;28;19921;-78
2022/04/11 02:55:24;;;;;;;;;;;;;;;6.81;50.39;101434.13;5038101;28;20298;-80
2022/04/11 02:57:49;;;;;;;;;;;;;;;6.67;50.88;101446.09;5056115;28;20005;-79
2022/04/11 03:00:15;;;;;;;;;;;;;;;6.72;50.56;101446.13;5049922;28;19920;-79
2022/04/11 03:02:40;;;;;;;;;;;;;;;6.89;50.44;101441.91;5046342;28;19932;-79
2022/04/11 03:05:06;;;;;;;;;;;;;;;6.82;50.22;101440.16;5048064;28;19929;-79
2022/04/11 03:07:31;;;;;;;;;;;;;;;6.84;50.48;101430.72;5054217;28;20309;-79
2022/04/11 03:09:56;;;;;;;;;;;;;;;6.83;50.13;101435.00;5053060;28;19929;-79
2022/04/11 03:12:22;;;;;;;;;;;;;;;6.81;50.95;101431.53;5046728;28;20415;-78
2022/04/11 03:14:49;;;;;;;;;;;;;;;6.86;51.06;101427.28;5051215;28;19921;-80
2022/04/11 03:17:14;;;;;;;;;;;;;;;6.87;50.34;101431.56;5047549;28;19925;-79
2022/04/11 03:19:39;;;;;;;;;;;;;;;6.88;50.32;101427.25;5054098;28;20427;-79
2022/04/11 03:22:05;;;;;;;;;;;;;;;6.81;50.30;101428.94;5040000;28;19982;-75
2022/04/11 03:24:30;;;;;;;;;;;;;;;7.01;49.98;101435.09;5075533;28;19974;-80
2022/04/11 03:26:55;;;;;;;;;;;;;;;6.97;50.32;101425.59;5030822;28;20399;-80
2022/04/11 03:29:21;;;;;;;;;;;;;;;6.86;51.39;101423.81;5054081;28;20298;-80
2022/04/11 03:31:48;;;;;;;;;;;;;;;6.61;51.26;101428.00;5043303;28;19925;-77
2022/04/11 03:34:13;;;;;;;;;;;;;;;6.62;51.81;101434.03;5045579;28;20513;-77
2022/04/11 03:36:38;;;;;;;;;;;;;;;6.89;50.86;101432.44;5055558;28;19924;-77
2022/04/11 03:39:03;;;;;;;;;;;;;;;7.04;50.61;101429.94;5028491;28;20479;-80
2022/04/11 03:41:29;;;;;;;;;;;;;;;6.90;49.87;101423.81;5053545;28;19929;-80
2022/04/11 03:43:54;;;;;;;;;;;;;;;6.76;50.67;101429.78;5044708;28;20301;-80
2022/04/11 03:46:19;;;;;;;;;;;;;;;6.89;50.37;101429.00;5049518;28;20023;-80
2022/04/11 03:48:45;;;;;;;;;;;;;;;6.86;50.09;101435.03;5043230;28;20382;-80
2022/04/11 03:51:10;;;;;;;;;;;;;;;6.75;50.95;101443.56;5049586;28;19921;-80
2022/04/11 03:53:35;;;;;;;;;;;;;;;6.39;51.31;101446.75;5039549;28;19930;-80
2022/04/11 03:56:01;;;;;;;;;;;;;;;6.73;50.35;101435.81;5052104;28;19924;-80
2022/04/11 03:58:26;;;;;;;;;;;;;;;6.76;50.42;101437.53;5045535;28;19967;-79
2022/04/11 04:00:51;;;;;;;;;;;;;;;6.93;50.74;101435.91;5053710;28;20329;-79
2022/04/11 04:03:17;;;;;;;;;;;;;;;6.92;51.12;101434.19;5049364;28;19940;-79
2022/04/11 04:05:43;;;;;;;;;;;;;;;6.86;50.62;101435.03;5048460;28;19924;-79
2022/04/11 04:08:09;;;;;;;;;;;;;;;6.90;51.01;101431.56;5035280;28;20379;-79
2022/04/11 04:10:34;;;;;;;;;;;;;;;6.86;51.15;101431.56;5056690;28;20007;-79
2022/04/11 04:13:00;;;;;;;;;;;;;;;6.69;50.97;101433.22;5055318;28;19924;-79
2022/04/11 04:15:25;;;;;;;;;;;;;;;6.83;51.74;101428.97;5051083;28;20258;-79
2022/04/11 04:17:54;;;;;;;;;;;;;;;6.87;51.04;101428.97;5054546;28;19920;-75
2022/04/11 04:20:19;;;;;;;;;;;;;;;6.93;50.55;101425.59;5049735;28;20016;-80
2022/04/11 04:22:44;;;;;;;;;;;;;;;6.82;50.92;101428.09;5059020;28;20011;-75
2022/04/11 04:25:09;;;;;;;;;;;;;;;6.88;51.28;101432.44;5045920;28;20933;-75
2022/04/11 04:27:35;;;;;;;;;;;;;;;6.85;51.13;101424.66;5041912;28;19925;-77
2022/04/11 04:30:00;;;;;;;;;;;;;;;6.93;49.83;101423.84;5039818;28;19921;-77
2022/04/11 04:32:26;;;;;;;;;;;;;;;6.82;50.49;101420.34;5063571;28;19928;-77
2022/04/11 04:34:51;;;;;;;;;;;;;;;6.82;50.29;101422.94;5075947;28;20023;-80
2022/04/11 04:37:17;;;;;;;;;;;;;;;6.74;50.75;101416.88;5059413;28;19963;-78
2022/04/11 04:39:42;;;;;;;;;;;;;;;6.84;50.51;101420.38;5041858;28;19924;-78
2022/04/11 04:42:07;;;;;;;;;;;;;;;6.75;51.10;101421.16;5046147;28;19928;-78
2022/04/11 04:44:33;;;;;;;;;;;;;;;6.73;51.07;101424.59;5047215;28;20011;-78
2022/04/11 04:46:58;;;;;;;;;;;;;;;6.75;50.60;101426.34;5046174;28;20336;-78
2022/04/11 04:49:23;;;;;;;;;;;;;;;6.57;50.33;101421.09;5049085;28;19928;-76
2022/04/11 04:51:49;;;;;;;;;;;;;;;6.70;51.02;101422.00;5066127;28;19925;-80
2022/04/11 04:54:14;;;;;;;;;;;;;;;6.78;50.67;101421.19;5047878;28;20388;-75
2022/04/11 04:56:39;;;;;;;;;;;;;;;6.61;49.97;101429.69;5048940;28;19932;-75
2022/04/11 04:59:05;;;;;;;;;;;;;;;6.56;50.73;101427.97;5040714;28;20390;-77
2022/04/11 05:01:30;;;;;;;;;;;;;;;6.58;50.86;101430.56;5032912;28;20023;-77
2022/04/11 05:03:56;;;;;;;;;;;;;;;6.62;49.83;101429.72;5036772;28;20543;-79
2022/04/11 05:06:22;;;;;;;;;;;;;;;6.45;50.59;101432.19;5042082;28;19920;-79
2022/04/11 05:08:48;;;;;;;;;;;;;;;6.56;50.58;101430.56;5039908;28;19925;-80
2022/04/11 05:11:13;;;;;;;;;;;;;;;6.32;50.69;101429.50;5060387;28;20020;-79
2022/04/11 05:13:40;;;;;;;;;;;;;;;6.47;50.50;101422.75;5049039;28;19932;-80
2022/04/11 05:16:05;;;;;;;;;;;;;;;6.42;50.75;101421.84;5057223;28;19932;-79
2022/04/11 05:18:31;;;;;;;;;;;;;;;6.45;50.16;101427.03;5048786;28;19924;-80
2022/04/11 05:20:56;;;;;;;;;;;;;;;6.42;51.42;101428.72;5037874;28;19929;-80
2022/04/11 05:23:21;;;;;;;;;;;;;;;6.55;50.34;101427.94;5053885;28;19964;-80
2022/04/11 05:25:46;;;;;;;;;;;;;;;6.53;50.21;101427.09;5045878;28;20475;-75
2022/04/11 05:28:12;;;;;;;;;;;;;;;6.60;50.82;101426.28;5047369;28;20014;-75
2022/04/11 05:30:37;;;;;;;;;;;;;;;6.50;50.69;101427.94;5043249;28;20369;-80
2022/04/11 05:33:03;;;;;;;;;;;;;;;6.68;51.11;101428.88;5050236;28;19925;-80
2022/04/11 05:35:28;;;;;;;;;;;;;;;6.45;50.41;101424.44;5038734;28;20313;-79
2022/04/11 05:37:53;;;;;;;;;;;;;;;6.55;51.22;101427.94;5043160;28;19924;-80
2022/04/11 05:40:19;;;;;;;;;;;;;;;6.55;51.39;101428.81;5056586;28;19925;-75
2022/04/11 05:42:44;;;;;;;;;;;;;;;6.50;51.23;101435.69;5046393;28;19990;-76
2022/04/11 05:45:17;;;;;;;;;;;;;;;6.62;51.34;101436.59;5049246;28;20023;-80
2022/04/11 05:47:42;;;;;;;;;;;;;;;6.72;51.27;101433.22;5054117;28;19999;-80
2022/04/11 05:50:08;;;;;;;;;;;;;;;6.68;51.74;101423.72;5048817;28;20065;-80
2022/04/11 05:52:33;;;;;;;;;;;;;;;6.70;52.45;101422.88;5052086;28;20538;-80
2022/04/11 05:54:59;;;;;;;;;;;;;;;6.67;51.17;101425.44;5048986;28;19924;-78
2022/04/11 05:57:24;;;;;;;;;;;;;;;6.79;51.95;101432.38;5049740;28;19929;-80
2022/04/11 05:59:49;;;;;;;;;;;;;;;6.70;50.70;101420.28;5051113;28;20027;-80
2022/04/11 06:02:15;;;;;;;;;;;;;;;6.73;50.72;101425.47;5041928;28;20157;-80
2022/04/11 06:04:40;;;;;;;;;;;;;;;6.86;51.13;101427.28;5056953;28;19965;-78
2022/04/11 06:07:05;;;;;;;;;;;;;;;6.60;52.15;101428.00;5022664;28;19928;-78
2022/04/11 06:09:31;;;;;;;;;;;;;;;6.83;51.37;101424.69;5054757;28;19956;-80
2022/04/11 06:11:56;;;;;;;;;;;;;;;6.76;52.19;101425.50;5037849;28;19931;-80
2022/04/11 06:14:22;;;;;;;;;;;;;;;6.84;52.17;101430.72;5049865;28;20365;-79
2022/04/11 06:16:47;;;;;;;;;;;;;;;6.97;51.21;101435.06;5055432;28;20350;-78
2022/04/11 06:19:17;;;;;;;;;;;;;;;6.97;51.96;101430.75;5047964;28;19928;-78
2022/04/11 06:21:42;;;;;;;;;;;;;;;6.94;52.24;101427.28;5035450;28;19929;-78
2022/04/11 06:24:07;;;;;;;;;;;;;;;7.13;51.43;101429.97;5043375;28;19927;-80
2022/04/11 06:26:32;;;;;;;;;;;;;;;7.17;52.51;101427.41;5035759;28;19989;-78
2022/04/11 06:28:58;;;;;;;;;;;;;;;7.08;52.67;101418.75;5036426;28;19924;-75
2022/04/11 06:31:23;;;;;;;;;;;;;;;7.28;52.54;101418.81;5035790;28;19931;-77
2022/04/11 06:33:48;;;;;;;;;;;;;;;7.11;51.00;101413.59;5036019;28;19925;-78
2022/04/11 06:36:14;;;;;;;;;;;;;;;7.16;52.61;101420.50;5043917;28;19921;-78
2022/04/11 06:38:39;;;;;;;;;;;;;;;7.14;52.40;101413.59;5035646;28;19924;-78
2022/04/11 06:41:04;;;;;;;;;;;;;;;7.25;52.31;101415.34;5038013;28;19932;-75
2022/04/11 06:43:30;;;;;;;;;;;;;;;7.22;51.83;101417.94;5038906;28;20381;-78
2022/04/11 06:45:55;;;;;;;;;;;;;;;7.12;51.52;101407.56;5050207;28;20302;-78
2022/04/11 06:48:21;;;;;;;;;;;;;;;7.35;51.46;101417.09;5049987;28;19962;-75
2022/04/11 06:50:46;;;;;;;;;;;;;;;7.33;51.07;101409.34;5037875;28;20013;-78
2022/04/11 06:53:14;;;;;;;;;;;;;;;7.42;50.58;101411.09;5035247;28;19931;-78
2022/04/11 06:55:40;;;;;;;;;;;;;;;7.55;51.75;101413.69;5039587;28;19970;-77
2022/04/11 06:58:05;;;;;;;;;;;;;;;7.62;51.55;101407.69;5037702;28;19928;-75
2022/04/11 07:00:30;;;;;;;;;;;;;;;7.52;51.34;101407.69;5030853;28;19948;-78
2022/04/11 07:02:56;;;;;;;;;;;;;;;7.51;51.83;101398.19;5045014;28;19929;-75
2022/04/11 07:05:21;;;;;;;;;;;;;;;7.58;51.80;101400.75;5044549;28;20301;-75
2022/04/11 07:07:46;;;;;;;;;;;;;;;7.70;51.67;101403.38;5036097;28;20015;-80
2022/04/11 07:10:12;;;;;;;;;;;;;;;7.80;52.30;101405.97;5041125;28;20305;-78
2022/04/11 07:12:41;;;;;;;;;;;;;;;7.66;51.89;101409.41;5040278;28;19932;-77
2022/04/11 07:15:07;;;;;;;;;;;;;;;7.64;51.98;101410.28;5052622;28;19975;-80
2022/04/11 07:17:32;;;;;;;;;;;;;;;7.83;52.83;101409.41;5037630;28;19929;-80
2022/04/11 07:19:57;;;;;;;;;;;;;;;7.90;52.88;101410.28;5034278;28;20063;-75
2022/04/11 07:22:23;;;;;;;;;;;;;;;7.97;51.78;101410.28;5036253;28;19995;-75
2022/04/11 07:24:48;;;;;;;;;;;;;;;7.99;50.99;101412.88;5034371;28;19936;-80
2022/04/11 07:27:13;;;;;;;;;;;;;;;8.06;51.00;101405.09;5041380;28;19921;-80
2022/04/11 07:29:39;;;;;;;;;;;;;;;8.22;50.67;101404.22;5041300;28;20038;-79
2022/04/11 07:32:04;;;;;;;;;;;;;;;8.13;49.90;101396.47;5039169;28;19928;-80
2022/04/11 07:34:30;;;;;;;;;;;;;;;8.34;54.11;101398.22;5039380;28;19930;-80
2022/04/11 07:36:55;;;;;;;;;;;;;;;8.45;49.52;101401.63;5043859;28;19932;-78
2022/04/11 07:39:23;;;;;;;;;;;;;;;8.39;49.73;101396.47;5042761;28;20041;-78
2022/04/11 07:41:48;;;;;;;;;;;;;;;8.62;50.25;101394.66;5025564;28;20070;-79
2022/04/11 07:44:14;;;;;;;;;;;;;;;8.63;50.70;101392.94;5040690;28;19967;-75
2022/04/11 07:46:39;;;;;;;;;;;;;;;8.62;48.51;101391.25;5056310;28;19924;-75
2022/04/11 07:49:04;;;;;;;;;;;;;;;8.58;48.85;101385.22;5036257;28;19963;-80
2022/04/11 07:51:30;;;;;;;;;;;;;;;8.77;52.44;101394.63;5036016;28;19932;-78
2022/04/11 07:53:55;;;;;;;;;;;;;;;8.53;49.94;101386.09;5058040;28;19964;-75
2022/04/11 07:56:20;;;;;;;;;;;;;;;8.57;49.11;101387.78;5037859;28;19924;-79
2022/04/11 07:58:45;;;;;;;;;;;;;;;8.57;49.35;101391.25;5039396;28;20984;-79
2022/04/11 08:01:16;;;;;;;;;;;;;;;8.73;49.31;101390.34;5040516;28;19932;-79
2022/04/11 08:03:42;;;;;;;;;;;;;;;8.82;47.56;101381.66;5042246;28;20447;-80
2022/04/11 08:06:07;;;;;;;;;;;;;;;8.72;47.45;101380.84;5040247;28;19954;-75
2022/04/11 08:08:32;;;;;;;;;;;;;;;8.96;46.82;101368.63;5041135;28;19935;-75
2022/04/11 08:10:57;;;;;;;;;;;;;;;8.90;46.96;101376.44;5037774;28;19963;-77
2022/04/11 08:13:23;;;;;;;;;;;;;;;8.85;46.91;101373.88;5036070;28;19920;-80
2022/04/11 08:15:48;;;;;;;;;;;;;;;9.01;47.46;101369.50;5053242;28;19979;-80
2022/04/11 08:18:13;;;;;;;;;;;;;;;9.37;52.04;101379.63;5046255;28;19913;-80
2022/04/11 08:20:39;;;;;;;;;;;;;;;9.46;49.77;101366.63;5040206;28;19933;-80
2022/04/11 08:23:05;;;;;;;;;;;;;;;9.59;51.86;101362.22;5042374;28;20275;-81
2022/04/11 08:25:30;;;;;;;;;;;;;;;9.67;51.37;101368.19;5048206;28;19931;-80
2022/04/11 08:27:56;;;;;;;;;;;;;;;9.87;50.68;101354.19;5044342;28;19924;-75
2022/04/11 08:30:21;;;;;;;;;;;;;;;9.75;46.79;101354.28;5047824;28;19923;-75
2022/04/11 08:32:47;;;;;;;;;;;;;;;9.88;51.05;101350.72;5061060;28;20456;-80
2022/04/11 08:35:13;;;;;;;;;;;;;;;9.71;48.77;101349.16;5054210;28;21101;-78
2022/04/11 08:37:40;;;;;;;;;;;;;;;10.00;51.26;101352.38;5045796;28;19940;-75
2022/04/11 08:40:05;;;;;;;;;;;;;;;9.57;44.17;101345.81;5037737;28;20725;-75
2022/04/11 08:42:31;;;;;;;;;;;;;;;9.35;44.27;101352.88;5056001;28;19935;-75
2022/04/11 08:44:57;;;;;;;;;;;;;;;9.58;43.54;101343.19;5038551;28;19971;-77
2022/04/11 08:47:22;;;;;;;;;;;;;;;9.43;44.01;101338.09;5040864;28;20088;-80
2022/04/11 08:49:48;;;;;;;;;;;;;;;9.50;47.82;101336.34;5036136;28;19929;-75
2022/04/11 08:52:13;;;;;;;;;;;;;;;9.53;46.55;101342.38;5068545;28;19935;-75
2022/04/11 08:54:39;;;;;;;;;;;;;;;9.53;44.54;101344.09;5055072;28;19986;-75
2022/04/11 08:57:05;;;;;;;;;;;;;;;9.70;43.44;101337.03;5050040;28;19917;-79
2022/04/11 08:59:33;;;;;;;;;;;;;;;9.60;43.23;101338.84;5061252;28;19932;-79
2022/04/11 09:01:58;;;;;;;;;;;;;;;9.53;43.04;101342.38;5037925;28;19928;-79
2022/04/11 09:04:24;;;;;;;;;;;;;;;9.63;42.61;101337.97;5058592;28;19925;-79
2022/04/11 09:06:56;;;;;;;;;;;;;;;9.67;43.10;101337.06;5038477;28;19978;-79
2022/04/11 09:09:41;;;;;;;;;;;;;;;9.57;42.71;101333.66;5037910;28;20007;-75
2022/04/11 09:12:14;;;;;;;;;;;;;;;9.62;44.16;101325.88;5040784;28;19978;-75
2022/04/11 09:14:40;;;;;;;;;;;;;;;9.66;42.78;101324.97;5041738;28;19925;-79
2022/04/11 09:17:05;;;;;;;;;;;;;;;9.56;43.82;101316.41;5041987;28;20079;-78
2022/04/11 09:19:31;;;;;;;;;;;;;;;9.57;44.29;101314.69;5041681;28;20007;-80
2022/04/11 09:21:57;;;;;;;;;;;;;;;9.68;42.88;101310.25;5041711;28;19925;-75
2022/04/11 09:24:24;;;;;;;;;;;;;;;9.71;43.07;101308.50;5038662;28;19927;-80
2022/04/11 09:26:54;;;;;;;;;;;;;;;9.82;42.26;101304.06;5035361;28;22036;-75
2022/04/11 09:29:19;;;;;;;;;;;;;;;9.74;42.53;101313.66;5038944;28;19925;-77
2022/04/11 09:31:45;;;;;;;;;;;;;;;9.87;42.98;101307.47;5034398;28;19932;-80
2022/04/11 09:34:13;;;;;;;;;;;;;;;9.93;42.41;101305.75;5038636;28;19925;-80
2022/04/11 09:36:43;;;;;;;;;;;;;;;9.88;41.74;101297.94;5039542;28;19927;-80
2022/04/11 09:39:08;;;;;;;;;;;;;;;9.88;40.97;101301.41;5040429;28;20396;-80
2022/04/11 09:41:34;;;;;;;;;;;;;;;10.00;41.70;101299.59;5036919;28;20012;-80
2022/04/11 09:44:20;;;;;;;;;;;;;;;9.94;42.39;101297.06;5035640;28;20015;-80
2022/04/11 09:46:45;;;;;;;;;;;;;;;9.85;42.31;101296.25;5051008;28;19968;-80
2022/04/11 09:49:11;;;;;;;;;;;;;;;10.08;46.40;101300.41;5037801;28;19963;-79
2022/04/11 09:51:36;;;;;;;;;;;;;;;10.00;41.48;101297.88;5057862;28;20368;-79
2022/04/11 09:54:20;;;;;;;;;;;;;;;10.13;40.89;101298.59;5034008;28;19927;-80
2022/04/11 09:56:45;;;;;;;;;;;;;;;10.20;41.48;101295.03;5028110;28;20451;-75
2022/04/11 09:59:11;;;;;;;;;;;;;;;10.05;41.36;101290.88;5031653;28;19925;-77
2022/04/11 10:01:37;;;;;;;;;;;;;;;10.10;42.29;101290.84;5038810;28;19955;-75
2022/04/11 10:04:02;;;;;;;;;;;;;;;10.12;41.04;101287.34;5036349;28;20373;-80
2022/04/11 10:06:27;;;;;;;;;;;;;;;10.10;41.50;101280.47;5037871;28;19928;-78
2022/04/11 10:08:53;;;;;;;;;;;;;;;10.22;45.73;101286.41;5035999;28;19929;-75
2022/04/11 10:11:18;;;;;;;;;;;;;;;10.20;40.77;101282.06;5051223;28;19924;-75
2022/04/11 10:13:45;;;;;;;;;;;;;;;10.19;40.36;101270.84;5049811;28;19947;-75
2022/04/11 10:16:10;;;;;;;;;;;;;;;10.26;41.29;101277.66;5058900;28;19917;-78
2022/04/11 10:18:36;;;;;;;;;;;;;;;10.33;46.85;101276.72;5039331;28;19951;-80
2022/04/11 10:21:05;;;;;;;;;;;;;;;10.28;41.36;101262.94;5040281;28;20463;-79
2022/04/11 10:23:31;;;;;;;;;;;;;;;10.38;41.67;101253.28;5034280;28;20009;-80
2022/04/11 10:26:00;;;;;;;;;;;;;;;10.45;47.92;101255.81;5038667;28;20340;-79
2022/04/11 10:28:27;;;;;;;;;;;;;;;10.56;46.81;101249.59;5059621;28;20011;-79
2022/04/11 10:31:05;;;;;;;;;;;;;;;10.57;46.12;101251.31;5045146;28;19961;-79
2022/04/11 10:33:49;;;;;;;;;;;;;;;10.62;47.67;101252.97;5050243;28;19925;-79
2022/04/11 10:36:29;;;;;;;;;;;;;;;10.61;42.31;101240.84;5019459;28;19952;-79
2022/04/11 10:39:14;;;;;;;;;;;;;;;10.57;41.03;101231.41;5017655;28;19929;-75
2022/04/11 10:41:54;;;;;;;;;;;;;;;10.61;42.56;101229.63;5014904;28;19963;-78
2022/04/11 10:44:29;;;;;;;;;;;;;;;10.65;41.79;101233.88;5017283;28;19925;-78
2022/04/11 10:47:10;;;;;;;;;;;;;;;10.68;45.62;101221.72;5015913;28;20689;-80
2022/04/11 10:49:44;;;;;;;;;;;;;;;10.64;44.21;101230.41;5020867;28;19925;-78
2022/04/11 10:52:29;;;;;;;;;;;;;;;10.71;41.49;101220.81;5016546;28;20429;-75
2022/04/11 10:55:17;;;;;;;;;;;;;;;10.77;40.48;101213.78;5012865;28;19925;-76
2022/04/11 10:57:45;;;;;;;;;;;;;;;10.78;46.87;101225.91;5009881;28;20535;-78
2022/04/11 11:00:15;;;;;;;;;;;;;;;10.80;41.90;101223.28;5016325;28;19923;-79
2022/04/11 11:02:49;;;;;;;;;;;;;;;10.88;48.50;101224.88;5025953;28;19925;-79
2022/04/11 11:05:24;;;;;;;;;;;;;;;10.80;40.70;101205.94;5019877;28;19926;-80
2022/04/11 11:08:05;;;;;;;;;;;;;;;10.78;42.94;101206.84;5015756;28;19929;-80
2022/04/11 11:10:40;;;;;;;;;;;;;;;10.81;42.71;101196.41;5016968;28;19932;-76
2022/04/11 11:13:26;;;;;;;;;;;;;;;10.80;42.84;101192.09;5021153;28;19932;-75
2022/04/11 11:15:51;;;;;;;;;;;;;;;10.86;46.97;101194.59;5017963;28;19921;-80
2022/04/11 11:18:17;;;;;;;;;;;;;;;10.83;42.97;101176.44;5016365;28;19920;-81
2022/04/11 11:20:53;;;;;;;;;;;;;;;10.91;43.75;101175.44;5021158;28;20449;-81
2022/04/11 11:23:23;;;;;;;;;;;;;;;10.95;40.96;101165.88;5016520;28;19980;-80
2022/04/11 11:25:49;;;;;;;;;;;;;;;11.02;46.01;101165.75;5015343;28;19929;-76
2022/04/11 11:28:15;;;;;;;;;;;;;;;11.02;47.28;101162.28;5021776;28;19929;-76
2022/04/11 11:30:40;;;;;;;;;;;;;;;11.07;42.33;101159.59;5019256;28;19975;-75
2022/04/11 11:33:07;;;;;;;;;;;;;;;11.10;44.24;101156.94;5014722;28;19986;-75
2022/04/11 11:35:33;;;;;;;;;;;;;;;11.07;40.99;101146.59;5025643;28;19921;-76
2022/04/11 11:38:04;;;;;;;;;;;;;;;11.14;44.03;101150.81;5015932;28;20386;-80
2022/04/11 11:40:32;;;;;;;;;;;;;;;11.12;47.34;101150.84;5022589;28;20423;-80
2022/04/11 11:42:57;;;;;;;;;;;;;;;11.05;41.40;101149.25;5021506;28;19956;-80
2022/04/11 11:45:26;;;;;;;;;;;;;;;11.08;46.74;101151.78;5032503;28;19921;-81
2022/04/11 11:47:52;;;;;;;;;;;;;;;11.17;44.02;101143.84;5033809;28;19925;-80
2022/04/11 11:50:18;;;;;;;;;;;;;;;11.21;47.18;101140.28;5032780;28;20052;-81
2022/04/11 11:52:54;;;;;;;;;;;;;;;11.17;41.76;101130.84;5030042;28;20481;-81
2022/04/11 11:55:20;;;;;;;;;;;;;;;11.22;43.23;101130.75;5033348;28;19925;-80
2022/04/11 11:57:45;;;;;;;;;;;;;;;11.28;41.78;101131.53;5031905;28;20385;-76
2022/04/11 12:00:11;;;;;;;;;;;;;;;11.26;42.77;101122.88;5031644;28;19975;-80
2022/04/11 12:05:21;;;;;;;;;;;;;;;11.32;46.02;101122.78;5028526;28;20409;-80
2022/04/11 12:07:47;;;;;;;;;;;;;;;11.32;46.96;101121.94;5034333;28;19932;-78
2022/04/11 12:10:12;;;;;;;;;;;;;;;11.29;43.39;101119.38;5020463;28;19928;-76
2022/04/11 12:12:38;;;;;;;;;;;;;;;11.33;42.49;101105.41;5034986;28;19925;-80
2022/04/11 12:15:05;;;;;;;;;;;;;;;11.39;47.11;101107.91;5013385;28;19988;-80
2022/04/11 12:17:32;;;;;;;;;;;;;;;11.39;44.93;101105.31;5027324;28;19925;-75
2022/04/11 12:20:16;;;;;;;;;;;;;;;11.31;41.21;101099.41;5028745;28;20004;-75
2022/04/11 12:23:01;;;;;;;;;;;;;;;11.36;40.38;101090.63;5023134;28;19933;-80
2022/04/11 12:25:31;;;;;;;;;;;;;;;11.31;43.38;101097.66;5026239;28;19931;-80
2022/04/11 12:28:12;;;;;;;;;;;;;;;11.33;39.84;101077.66;5024112;28;20044;-80
2022/04/11 12:30:41;;;;;;;;;;;;;;;11.35;40.36;101083.72;5010784;28;19964;-78
2022/04/11 12:33:07;;;;;;;;;;;;;;;11.45;43.12;101082.66;5023217;28;20441;-76
2022/04/11 12:35:32;;;;;;;;;;;;;;;11.45;43.39;101080.03;5015418;28;19925;-76
2022/04/11 12:38:00;;;;;;;;;;;;;;;11.46;46.58;101079.16;5032690;28;19924;-75
2022/04/11 12:40:44;;;;;;;;;;;;;;;11.46;40.30;101071.34;5033257;28;20008;-76
2022/04/11 12:43:10;;;;;;;;;;;;;;;11.54;43.84;101060.78;5027729;28;19929;-78
2022/04/11 12:45:36;;;;;;;;;;;;;;;11.51;41.22;101046.09;5055842;28;19925;-77